createdAt,value
2018-08-30T00:02:06.021Z,18.90
2018-08-30T00:04:35.191Z,18.50
2018-08-30T00:07:04.416Z,18.20
2018-08-30T00:09:34.580Z,18.10
2018-08-30T00:12:03.710Z,18.20
2018-08-30T00:14:32.903Z,18.30
2018-08-30T00:17:02.008Z,18.30
2018-08-30T00:19:31.076Z,18.30
2018-08-30T00:22:00.284Z,18.20
2018-08-30T00:24:29.953Z,18.30
2018-08-30T00:26:59.073Z,18.40
2018-08-30T00:29:28.240Z,18.40
2018-08-30T00:31:57.327Z,18.50
2018-08-30T00:34:26.415Z,18.40
2018-08-30T00:36:55.531Z,18.30
2018-08-30T00:39:24.665Z,18.20
2018-08-30T00:41:53.752Z,18.30
2018-08-30T00:44:22.842Z,18.20
2018-08-30T00:46:52.542Z,18.10
2018-08-30T00:49:21.637Z,18.10
2018-08-30T00:51:51.340Z,18.20
2018-08-30T00:54:27.424Z,18.10
2018-08-30T00:56:57.011Z,18.10
2018-08-30T00:59:26.309Z,17.90
2018-08-30T01:01:55.592Z,17.90
2018-08-30T01:04:24.709Z,18.00
2018-08-30T01:06:53.867Z,18.10
2018-08-30T01:09:23.488Z,18.00
2018-08-30T01:11:52.603Z,18.00
2018-08-30T01:14:21.929Z,17.90
2018-08-30T01:16:51.042Z,17.90
2018-08-30T01:19:20.168Z,17.60
2018-08-30T01:21:49.261Z,17.50
2018-08-30T01:24:18.343Z,17.60
2018-08-30T01:26:47.443Z,17.50
2018-08-30T01:29:16.702Z,17.40
2018-08-30T01:31:45.841Z,17.40
2018-08-30T01:34:14.968Z,17.30
2018-08-30T01:36:45.092Z,17.30
2018-08-30T01:39:15.191Z,17.20
2018-08-30T01:41:45.032Z,17.30
2018-08-30T01:44:14.772Z,17.30
2018-08-30T01:46:43.851Z,17.40
2018-08-30T01:49:12.985Z,17.40
2018-08-30T01:51:42.073Z,17.30
2018-08-30T01:54:11.236Z,17.40
2018-08-30T01:56:40.324Z,17.50
2018-08-30T01:59:09.451Z,17.50
2018-08-30T02:01:39.049Z,17.30
2018-08-30T02:04:08.199Z,17.30
2018-08-30T02:06:38.260Z,17.30
2018-08-30T02:09:07.413Z,17.40
2018-08-30T02:11:36.536Z,17.40
2018-08-30T02:14:05.630Z,17.30
2018-08-30T02:16:34.717Z,17.30
2018-08-30T02:19:03.941Z,17.40
2018-08-30T02:21:33.040Z,17.50
2018-08-30T02:24:02.412Z,17.50
2018-08-30T02:26:34.049Z,17.70
2018-08-30T02:29:03.196Z,17.80
2018-08-30T02:31:32.304Z,17.60
2018-08-30T02:34:01.505Z,17.50
2018-08-30T02:36:30.630Z,17.50
2018-08-30T02:38:59.809Z,17.50
2018-08-30T02:41:29.505Z,17.70
2018-08-30T02:43:59.337Z,17.80
2018-08-30T02:46:28.556Z,17.80
2018-08-30T02:48:58.065Z,17.90
2018-08-30T02:51:27.181Z,18.00
2018-08-30T02:53:56.297Z,18.00
2018-08-30T02:56:25.490Z,17.90
2018-08-30T02:58:55.260Z,17.90
2018-08-30T03:01:24.426Z,18.10
2018-08-30T03:03:53.528Z,18.10
2018-08-30T03:06:22.656Z,18.00
2018-08-30T03:08:51.762Z,17.90
2018-08-30T03:11:20.813Z,17.80
2018-08-30T03:13:49.934Z,17.80
2018-08-30T03:16:19.095Z,17.80
2018-08-30T03:18:48.189Z,17.70
2018-08-30T03:21:17.316Z,17.70
2018-08-30T03:23:46.599Z,17.80
2018-08-30T03:26:15.812Z,18.00
2018-08-30T03:28:51.861Z,17.90
2018-08-30T03:31:20.941Z,17.90
2018-08-30T03:33:50.104Z,17.80
2018-08-30T03:36:19.241Z,17.90
2018-08-30T03:38:48.417Z,17.90
2018-08-30T03:41:17.531Z,17.80
2018-08-30T03:43:47.124Z,17.80
2018-08-30T03:46:16.266Z,17.90
2018-08-30T03:48:45.399Z,18.00
2018-08-30T03:51:14.547Z,17.90
2018-08-30T03:53:43.624Z,17.90
2018-08-30T03:56:12.856Z,17.90
2018-08-30T03:58:41.947Z,17.90
2018-08-30T04:01:11.225Z,18.10
2018-08-30T04:03:40.947Z,18.10
2018-08-30T04:06:10.260Z,18.20
2018-08-30T04:08:39.383Z,18.10
2018-08-30T04:11:09.224Z,18.10
2018-08-30T04:13:38.368Z,18.10
2018-08-30T04:16:07.481Z,18.00
2018-08-30T04:18:36.560Z,18.10
2018-08-30T04:21:05.685Z,18.20
2018-08-30T04:23:34.883Z,18.30
2018-08-30T04:26:04.009Z,18.50
2018-08-30T04:28:33.208Z,18.50
2018-08-30T04:31:02.332Z,18.50
2018-08-30T04:33:31.416Z,18.20
2018-08-30T04:36:00.537Z,17.90
2018-08-30T04:38:30.860Z,17.70
2018-08-30T04:41:00.499Z,17.70
2018-08-30T04:43:30.356Z,17.80
2018-08-30T04:45:59.519Z,17.90
2018-08-30T04:48:28.748Z,18.10
2018-08-30T04:50:57.821Z,18.00
2018-08-30T04:53:27.865Z,17.90
2018-08-30T04:55:56.965Z,18.00
2018-08-30T04:58:26.599Z,18.10
2018-08-30T05:00:55.725Z,18.00
2018-08-30T05:03:24.881Z,17.70
2018-08-30T05:05:55.141Z,17.60
2018-08-30T05:08:25.077Z,17.50
2018-08-30T05:10:54.592Z,17.60
2018-08-30T05:13:24.984Z,17.80
2018-08-30T05:15:54.128Z,17.80
2018-08-30T05:18:23.231Z,17.80
2018-08-30T05:20:53.308Z,17.70
2018-08-30T05:23:23.185Z,17.40
2018-08-30T05:25:52.991Z,17.20
2018-08-30T05:28:22.096Z,17.30
2018-08-30T05:30:51.233Z,17.60
2018-08-30T05:33:20.289Z,17.80
2018-08-30T05:35:49.516Z,17.90
2018-08-30T05:38:19.681Z,17.70
2018-08-30T05:40:48.875Z,17.60
2018-08-30T05:43:18.000Z,17.70
2018-08-30T05:45:47.167Z,17.90
2018-08-30T05:48:16.256Z,17.80
2018-08-30T05:50:45.928Z,17.80
2018-08-30T05:53:15.064Z,17.90
2018-08-30T05:55:44.297Z,18.00
2018-08-30T05:58:13.415Z,18.00
2018-08-30T06:00:42.657Z,17.90
2018-08-30T06:03:12.538Z,18.00
2018-08-30T06:05:43.532Z,18.10
2018-08-30T06:08:13.248Z,18.20
2018-08-30T06:10:42.378Z,18.00
2018-08-30T06:13:12.242Z,18.10
2018-08-30T06:15:41.811Z,18.20
2018-08-30T06:18:11.016Z,18.30
2018-08-30T06:20:40.105Z,18.30
2018-08-30T06:23:09.235Z,18.30
2018-08-30T06:25:38.380Z,18.40
2018-08-30T06:28:08.218Z,18.30
2018-08-30T06:30:37.437Z,18.30
2018-08-30T06:33:06.647Z,18.10
2018-08-30T06:35:35.758Z,18.20
2018-08-30T06:38:05.081Z,18.20
2018-08-30T06:40:34.359Z,18.20
2018-08-30T06:43:04.045Z,18.10
2018-08-30T06:45:33.220Z,18.20
2018-08-30T06:48:02.284Z,18.30
2018-08-30T06:50:31.406Z,18.30
2018-08-30T06:53:01.355Z,18.40
2018-08-30T06:55:30.472Z,18.20
2018-08-30T06:57:59.573Z,18.20
2018-08-30T07:00:29.395Z,18.20
2018-08-30T07:02:58.515Z,18.30
2018-08-30T07:05:28.580Z,18.20
2018-08-30T07:07:57.713Z,18.20
2018-08-30T07:10:26.812Z,18.40
2018-08-30T07:12:55.997Z,18.40
2018-08-30T07:15:25.088Z,18.50
2018-08-30T07:17:55.506Z,18.40
2018-08-30T07:20:25.356Z,18.50
2018-08-30T07:22:55.020Z,18.20
2018-08-30T07:25:24.136Z,18.20
2018-08-30T07:27:53.232Z,18.40
2018-08-30T07:30:22.332Z,18.40
2018-08-30T07:32:51.433Z,18.50
2018-08-30T07:35:20.678Z,18.40
2018-08-30T07:37:49.788Z,18.60
2018-08-30T07:40:18.972Z,18.40
2018-08-30T07:42:49.192Z,18.50
2018-08-30T07:45:19.293Z,18.60
2018-08-30T07:47:48.364Z,18.40
2018-08-30T07:50:17.712Z,18.40
2018-08-30T07:52:46.949Z,18.50
2018-08-30T07:55:16.307Z,18.50
2018-08-30T07:57:45.391Z,18.60
2018-08-30T08:00:16.182Z,18.50
2018-08-30T08:02:45.692Z,18.60
2018-08-30T08:05:15.365Z,18.80
2018-08-30T08:07:44.879Z,18.90
2018-08-30T08:10:13.982Z,18.50
2018-08-30T08:12:43.104Z,18.40
2018-08-30T08:15:12.320Z,18.40
2018-08-30T08:17:41.499Z,18.40
2018-08-30T08:20:10.600Z,18.60
2018-08-30T08:22:39.756Z,18.70
2018-08-30T08:25:09.915Z,18.60
2018-08-30T08:27:39.657Z,18.60
2018-08-30T08:30:08.825Z,18.70
2018-08-30T08:32:37.957Z,18.70
2018-08-30T08:35:07.407Z,18.90
2018-08-30T08:37:36.602Z,19.10
2018-08-30T08:40:05.779Z,19.40
2018-08-30T08:42:34.868Z,19.50
2018-08-30T08:45:04.379Z,19.40
2018-08-30T08:47:33.506Z,19.30
2018-08-30T08:50:03.877Z,19.60
2018-08-30T08:52:33.001Z,19.80
2018-08-30T08:55:02.121Z,20.20
2018-08-30T08:57:31.260Z,20.40
2018-08-30T09:00:00.428Z,20.50
2018-08-30T09:02:29.556Z,20.60
2018-08-30T09:04:58.705Z,20.40
2018-08-30T09:07:27.850Z,20.40
2018-08-30T09:09:57.440Z,20.50
2018-08-30T09:12:26.623Z,20.90
2018-08-30T09:14:55.824Z,21.20
2018-08-30T09:17:24.965Z,21.10
2018-08-30T09:19:54.144Z,21.00
2018-08-30T09:22:23.270Z,20.90
2018-08-30T09:24:52.393Z,20.70
2018-08-30T09:27:21.620Z,20.90
2018-08-30T09:29:50.779Z,21.60
2018-08-30T09:32:20.107Z,21.60
2018-08-30T09:34:49.284Z,21.70
2018-08-30T09:37:18.383Z,22.50
2018-08-30T09:39:47.608Z,23.30
2018-08-30T09:42:16.847Z,23.30
2018-08-30T09:44:45.955Z,23.10
2018-08-30T09:47:15.585Z,23.40
2018-08-30T09:49:44.880Z,24.00
2018-08-30T09:52:13.952Z,25.00
2018-08-30T09:54:43.149Z,25.40
2018-08-30T09:57:14.538Z,25.70
2018-08-30T09:59:43.575Z,25.00
2018-08-30T10:02:18.017Z,24.00
2018-08-30T10:04:47.278Z,24.50
2018-08-30T10:07:16.357Z,25.60
2018-08-30T10:09:46.556Z,25.60
2018-08-30T10:12:15.680Z,24.60
2018-08-30T10:14:44.844Z,23.50
2018-08-30T10:17:14.520Z,22.80
2018-08-30T10:19:43.647Z,22.20
2018-08-30T10:22:12.887Z,21.90
2018-08-30T10:24:42.060Z,22.20
2018-08-30T10:27:11.531Z,23.80
2018-08-30T10:29:40.653Z,24.40
2018-08-30T10:32:09.792Z,24.00
2018-08-30T10:34:39.592Z,23.50
2018-08-30T10:37:09.318Z,22.70
2018-08-30T10:39:38.484Z,22.50
2018-08-30T10:42:07.714Z,23.40
2018-08-30T10:44:38.038Z,24.70
2018-08-30T10:47:07.122Z,25.50
2018-08-30T10:49:36.993Z,25.00
2018-08-30T10:52:06.103Z,24.00
2018-08-30T10:54:35.244Z,24.20
2018-08-30T10:57:05.793Z,25.70
2018-08-30T10:59:34.979Z,27.40
2018-08-30T11:02:04.131Z,28.60
2018-08-30T11:04:33.855Z,29.10
2018-08-30T11:07:09.575Z,28.80
2018-08-30T11:09:39.293Z,27.50
2018-08-30T11:12:08.701Z,26.00
2018-08-30T11:14:37.766Z,25.20
2018-08-30T11:17:06.918Z,24.40
2018-08-30T11:19:36.108Z,23.80
2018-08-30T11:22:05.435Z,23.60
2018-08-30T11:24:34.570Z,24.00
2018-08-30T11:27:04.616Z,24.40
2018-08-30T11:29:33.693Z,24.50
2018-08-30T11:32:02.949Z,24.20
2018-08-30T11:34:32.236Z,24.80
2018-08-30T11:37:01.425Z,25.80
2018-08-30T11:39:30.668Z,25.90
2018-08-30T11:41:59.957Z,25.40
2018-08-30T11:44:29.212Z,26.30
2018-08-30T11:46:59.187Z,26.20
2018-08-30T11:49:28.321Z,25.20
2018-08-30T11:51:57.452Z,25.10
2018-08-30T11:54:26.625Z,24.40
2018-08-30T11:56:55.868Z,23.70
2018-08-30T11:59:25.858Z,23.30
2018-08-30T12:01:55.960Z,23.20
2018-08-30T12:04:25.245Z,22.80
2018-08-30T12:06:54.459Z,22.30
2018-08-30T12:09:23.721Z,22.10
2018-08-30T12:11:54.075Z,22.00
2018-08-30T12:14:23.211Z,22.30
2018-08-30T12:16:52.397Z,22.30
2018-08-30T12:19:22.291Z,22.10
2018-08-30T12:21:51.761Z,21.90
2018-08-30T12:24:22.212Z,22.00
2018-08-30T12:26:52.072Z,22.10
2018-08-30T12:29:21.234Z,22.10
2018-08-30T12:31:50.551Z,22.50
2018-08-30T12:34:20.965Z,23.00
2018-08-30T12:36:50.199Z,23.30
2018-08-30T12:39:19.733Z,23.40
2018-08-30T12:41:49.906Z,23.40
2018-08-30T12:44:22.014Z,23.30
2018-08-30T12:46:52.044Z,23.30
2018-08-30T12:49:21.279Z,22.70
2018-08-30T12:51:51.296Z,22.30
2018-08-30T12:54:20.238Z,22.10
2018-08-30T12:56:49.361Z,22.00
2018-08-30T12:59:22.713Z,22.10
2018-08-30T13:01:51.902Z,22.10
2018-08-30T13:04:21.779Z,22.10
2018-08-30T13:06:57.178Z,22.30
2018-08-30T13:09:28.067Z,22.40
2018-08-30T13:11:58.852Z,22.80
2018-08-30T13:14:28.500Z,22.70
2018-08-30T13:16:58.161Z,22.60
2018-08-30T13:19:27.948Z,22.60
2018-08-30T13:21:57.983Z,22.70
2018-08-30T13:24:26.968Z,23.10
2018-08-30T13:26:56.266Z,23.20
2018-08-30T13:29:25.745Z,23.20
2018-08-30T13:31:55.028Z,23.30
2018-08-30T13:34:24.588Z,23.00
2018-08-30T13:36:54.595Z,22.70
2018-08-30T13:39:23.906Z,22.70
2018-08-30T13:41:53.123Z,22.70
2018-08-30T13:44:22.090Z,22.70
2018-08-30T13:46:51.143Z,22.30
2018-08-30T13:49:20.383Z,22.30
2018-08-30T13:51:50.038Z,22.30
2018-08-30T13:54:19.293Z,22.30
2018-08-30T13:56:48.314Z,22.40
2018-08-30T13:59:18.041Z,22.50
2018-08-30T14:01:47.786Z,22.50
2018-08-30T14:04:16.711Z,22.50
2018-08-30T14:06:46.387Z,22.40
2018-08-30T14:09:16.360Z,22.60
2018-08-30T14:11:45.652Z,22.60
2018-08-30T14:14:14.600Z,22.50
2018-08-30T14:16:43.640Z,22.30
2018-08-30T14:19:12.999Z,22.30
2018-08-30T14:21:42.132Z,22.30
2018-08-30T14:24:11.407Z,22.30
2018-08-30T14:26:40.817Z,22.40
2018-08-30T14:29:10.426Z,22.40
2018-08-30T14:31:39.668Z,22.50
2018-08-30T14:34:08.777Z,22.50
2018-08-30T14:36:38.047Z,22.40
2018-08-30T14:39:09.324Z,22.30
2018-08-30T14:41:38.866Z,22.10
2018-08-30T14:44:07.957Z,22.10
2018-08-30T14:46:37.269Z,22.20
2018-08-30T14:49:06.572Z,22.30
2018-08-30T14:51:35.789Z,22.40
2018-08-30T14:54:05.334Z,22.40
2018-08-30T14:56:34.465Z,22.50
2018-08-30T14:59:05.089Z,22.60
2018-08-30T15:01:34.395Z,22.60
2018-08-30T15:04:03.467Z,22.60
2018-08-30T15:06:32.970Z,22.20
2018-08-30T15:09:02.875Z,22.20
2018-08-30T15:11:32.170Z,22.20
2018-08-30T15:14:01.253Z,22.00
2018-08-30T15:16:30.395Z,21.70
2018-08-30T15:18:59.525Z,21.90
2018-08-30T15:21:28.718Z,22.10
2018-08-30T15:23:57.861Z,22.20
2018-08-30T15:26:27.004Z,22.20
2018-08-30T15:28:56.742Z,22.20
2018-08-30T15:31:26.469Z,22.10
2018-08-30T15:33:55.805Z,21.80
2018-08-30T15:36:25.373Z,21.80
2018-08-30T15:38:54.604Z,21.80
2018-08-30T15:41:23.933Z,21.90
2018-08-30T15:43:53.146Z,21.60
2018-08-30T15:46:22.370Z,21.60
2018-08-30T15:48:51.962Z,21.70
2018-08-30T15:51:20.995Z,21.90
2018-08-30T15:53:50.264Z,22.00
2018-08-30T15:56:19.420Z,22.10
2018-08-30T15:58:48.655Z,21.90
2018-08-30T16:01:17.779Z,21.70
2018-08-30T16:03:47.656Z,21.60
2018-08-30T16:06:16.805Z,21.60
2018-08-30T16:08:46.683Z,21.60
2018-08-30T16:11:15.861Z,21.70
2018-08-30T16:13:46.087Z,21.70
2018-08-30T16:16:15.227Z,21.60
2018-08-30T16:18:45.321Z,21.60
2018-08-30T16:21:14.424Z,21.60
2018-08-30T16:23:44.557Z,21.60
2018-08-30T16:26:13.799Z,21.60
2018-08-30T16:28:43.055Z,21.50
2018-08-30T16:31:12.802Z,21.50
2018-08-30T16:33:41.915Z,21.50
2018-08-30T16:36:11.662Z,21.50
2018-08-30T16:38:40.923Z,21.50
2018-08-30T16:41:10.083Z,21.60
2018-08-30T16:43:39.217Z,21.70
2018-08-30T16:46:08.300Z,21.70
2018-08-30T16:48:38.089Z,21.80
2018-08-30T16:51:07.304Z,21.90
2018-08-30T16:53:37.005Z,22.00
2018-08-30T16:56:06.211Z,22.00
2018-08-30T16:58:35.466Z,21.90
2018-08-30T17:01:04.695Z,21.90
2018-08-30T17:03:33.818Z,21.90
2018-08-30T17:06:03.056Z,21.90
2018-08-30T17:08:32.947Z,21.90
2018-08-30T17:11:02.129Z,21.80
2018-08-30T17:13:31.453Z,21.80
2018-08-30T17:16:00.531Z,21.90
2018-08-30T17:18:29.742Z,21.80
2018-08-30T17:20:59.396Z,21.80
2018-08-30T17:23:28.696Z,21.80
2018-08-30T17:25:57.785Z,21.80
2018-08-30T17:28:27.515Z,21.70
2018-08-30T17:30:56.695Z,21.70
2018-08-30T17:33:25.828Z,21.60
2018-08-30T17:35:54.969Z,21.60
2018-08-30T17:38:24.229Z,21.70
2018-08-30T17:40:53.423Z,21.70
2018-08-30T17:43:22.532Z,21.70
2018-08-30T17:45:51.884Z,21.70
2018-08-30T17:48:21.387Z,21.70
2018-08-30T17:50:50.610Z,21.70
2018-08-30T17:53:19.855Z,21.70
2018-08-30T17:55:49.523Z,21.70
2018-08-30T17:58:18.772Z,21.50
2018-08-30T18:00:48.210Z,21.50
2018-08-30T18:03:17.295Z,21.60
2018-08-30T18:05:46.524Z,21.60
2018-08-30T18:08:15.709Z,21.60
2018-08-30T18:10:44.877Z,21.60
2018-08-30T18:13:13.975Z,21.60
2018-08-30T18:15:43.131Z,21.60
2018-08-30T18:18:12.390Z,21.60
2018-08-30T18:20:41.635Z,21.60
2018-08-30T18:23:11.003Z,21.70
2018-08-30T18:25:40.211Z,21.60
2018-08-30T18:28:09.312Z,21.60
2018-08-30T18:30:38.477Z,21.60
2018-08-30T18:33:07.621Z,21.60
2018-08-30T18:35:36.847Z,21.60
2018-08-30T18:38:06.126Z,21.60
2018-08-30T18:40:35.449Z,21.60
2018-08-30T18:43:04.710Z,21.50
2018-08-30T18:45:33.801Z,21.40
2018-08-30T18:48:03.055Z,21.40
2018-08-30T18:50:32.354Z,21.30
2018-08-30T18:53:01.584Z,21.30
2018-08-30T18:55:30.824Z,21.20
2018-08-30T18:58:00.258Z,21.10
2018-08-30T19:00:29.441Z,21.10
2018-08-30T19:02:59.075Z,21.10
2018-08-30T19:05:28.967Z,21.10
2018-08-30T19:07:58.163Z,21.10
2018-08-30T19:10:27.329Z,21.00
2018-08-30T19:12:57.086Z,21.00
2018-08-30T19:15:31.686Z,21.00
2018-08-30T19:18:07.344Z,21.10
2018-08-30T19:20:36.745Z,21.00
2018-08-30T19:23:06.965Z,21.00
2018-08-30T19:25:36.680Z,21.00
2018-08-30T19:28:08.068Z,20.60
2018-08-30T19:30:44.153Z,20.30
2018-08-30T19:33:14.615Z,20.10
2018-08-30T19:35:49.998Z,19.90
2018-08-30T19:38:19.813Z,19.80
2018-08-30T19:40:54.499Z,19.80
2018-08-30T19:43:23.715Z,19.90
2018-08-30T19:45:53.753Z,19.80
2018-08-30T19:48:22.980Z,19.60
2018-08-30T19:50:52.962Z,19.70
2018-08-30T19:53:22.830Z,19.80
2018-08-30T19:55:53.649Z,19.90
2018-08-30T19:58:22.873Z,20.00
2018-08-30T20:00:52.324Z,20.10
2018-08-30T20:03:22.277Z,20.20
2018-08-30T20:05:51.589Z,20.20
2018-08-30T20:08:21.701Z,20.20
2018-08-30T20:10:50.935Z,20.00
2018-08-30T20:13:20.786Z,20.00
2018-08-30T20:15:50.142Z,20.00
2018-08-30T20:18:19.401Z,20.00
2018-08-30T20:20:48.560Z,20.10
2018-08-30T20:23:17.935Z,20.10
2018-08-30T20:25:47.102Z,20.20
2018-08-30T20:28:16.261Z,20.20
2018-08-30T20:30:45.513Z,20.30
2018-08-30T20:33:14.676Z,20.30
2018-08-30T20:35:43.952Z,20.40
2018-08-30T20:38:13.181Z,20.40
2018-08-30T20:40:43.798Z,20.40
2018-08-30T20:43:13.029Z,20.30
2018-08-30T20:45:42.174Z,20.20
2018-08-30T20:48:11.333Z,20.20
2018-08-30T20:50:41.031Z,20.20
2018-08-30T20:53:10.804Z,20.20
2018-08-30T20:55:40.382Z,20.20
2018-08-30T20:58:09.549Z,20.20
2018-08-30T21:00:39.369Z,20.20
2018-08-30T21:03:08.576Z,20.10
2018-08-30T21:05:39.179Z,20.20
2018-08-30T21:08:08.318Z,20.10
2018-08-30T21:10:37.491Z,20.00
2018-08-30T21:13:06.804Z,20.00
2018-08-30T21:15:36.497Z,20.00
2018-08-30T21:18:05.898Z,20.00
2018-08-30T21:20:35.790Z,20.00
2018-08-30T21:23:05.119Z,20.00
2018-08-30T21:25:34.265Z,20.00
2018-08-30T21:28:03.448Z,20.00
2018-08-30T21:30:34.132Z,20.00
2018-08-30T21:33:03.248Z,20.00
2018-08-30T21:35:32.416Z,20.00
2018-08-30T21:38:01.559Z,20.00
2018-08-30T21:40:30.720Z,19.90
2018-08-30T21:42:59.961Z,19.80
2018-08-30T21:45:29.117Z,19.80
2018-08-30T21:47:58.370Z,19.70
2018-08-30T21:50:27.606Z,19.60
2018-08-30T21:52:56.763Z,19.50
2018-08-30T21:55:26.156Z,19.50
2018-08-30T21:57:55.302Z,19.50
2018-08-30T22:00:24.563Z,19.60
2018-08-30T22:02:54.505Z,19.70
2018-08-30T22:05:23.619Z,19.60
2018-08-30T22:07:52.778Z,19.70
2018-08-30T22:10:22.097Z,19.50
2018-08-30T22:12:51.192Z,19.50
2018-08-30T22:15:20.420Z,19.50
2018-08-30T22:17:49.764Z,19.50
2018-08-30T22:20:19.511Z,19.50
2018-08-30T22:22:48.704Z,19.60
2018-08-30T22:25:17.807Z,19.50
2018-08-30T22:27:46.890Z,19.50
2018-08-30T22:30:16.932Z,19.50
2018-08-30T22:32:45.996Z,19.50
2018-08-30T22:35:15.097Z,19.30
2018-08-30T22:37:45.177Z,19.30
2018-08-30T22:40:14.281Z,19.30
2018-08-30T22:42:43.490Z,19.30
2018-08-30T22:45:12.615Z,19.30
2018-08-30T22:47:41.787Z,19.40
2018-08-30T22:50:11.756Z,19.40
2018-08-30T22:52:40.908Z,19.40
2018-08-30T22:55:10.049Z,19.30
2018-08-30T22:57:39.163Z,19.30
2018-08-30T23:00:08.376Z,19.20
2018-08-30T23:02:38.924Z,19.20
2018-08-30T23:05:08.031Z,19.20
2018-08-30T23:07:37.170Z,19.20
2018-08-30T23:10:06.580Z,19.10
2018-08-30T23:12:35.692Z,19.00
2018-08-30T23:15:04.861Z,19.00
2018-08-30T23:17:33.967Z,19.00
2018-08-30T23:20:03.252Z,19.10
2018-08-30T23:22:32.420Z,19.10
2018-08-30T23:25:01.522Z,19.00
2018-08-30T23:27:30.944Z,19.00
2018-08-30T23:30:00.059Z,19.00
2018-08-30T23:32:29.237Z,19.00
2018-08-30T23:34:58.464Z,19.00
2018-08-30T23:37:27.554Z,18.90
2018-08-30T23:39:56.922Z,18.90
2018-08-30T23:42:26.096Z,18.90
2018-08-30T23:44:55.212Z,18.90
2018-08-30T23:47:24.308Z,18.90
2018-08-30T23:49:53.447Z,18.90
2018-08-30T23:52:22.551Z,18.80
2018-08-30T23:54:51.611Z,18.70
2018-08-30T23:57:20.708Z,18.70
